createdAt,value
2022-09-09T00:02:20.812Z,5.47
2022-09-09T00:05:02.695Z,8.18
2022-09-09T00:07:44.017Z,7.78
2022-09-09T00:10:29.716Z,4.00
2022-09-09T00:13:05.538Z,4.00
2022-09-09T00:15:37.512Z,5.60
2022-09-09T00:18:18.506Z,7.72
2022-09-09T00:20:52.848Z,5.68
2022-09-09T00:23:29.313Z,3.78
2022-09-09T00:26:09.307Z,5.28
2022-09-09T00:28:42.688Z,4.18
2022-09-09T00:31:26.306Z,6.43
2022-09-09T00:33:54.602Z,6.65
2022-09-09T00:36:26.229Z,5.53
2022-09-09T00:38:57.939Z,5.50
2022-09-09T00:41:33.378Z,5.65
2022-09-09T00:44:07.908Z,7.65
2022-09-09T00:46:46.357Z,4.57
2022-09-09T00:49:33.787Z,8.20
2022-09-09T00:52:09.224Z,8.07
2022-09-09T00:54:50.769Z,5.93
2022-09-09T00:57:17.447Z,8.52
2022-09-09T00:59:52.173Z,7.60
2022-09-09T01:02:30.702Z,8.75
2022-09-09T01:05:14.784Z,5.00
2022-09-09T01:07:48.224Z,7.38
2022-09-09T01:10:42.586Z,5.25
2022-09-09T01:13:17.893Z,4.78
2022-09-09T01:15:45.502Z,8.18
2022-09-09T01:18:17.589Z,5.70
2022-09-09T01:21:19.363Z,7.07
2022-09-09T01:24:27.940Z,11.02
2022-09-09T01:26:59.999Z,15.80
2022-09-09T01:29:27.143Z,7.22
2022-09-09T01:31:58.055Z,7.88
2022-09-09T01:34:28.298Z,7.60
2022-09-09T01:37:01.126Z,10.73
2022-09-09T01:39:28.740Z,10.98
2022-09-09T01:41:57.103Z,5.53
2022-09-09T01:44:25.125Z,5.03
2022-09-09T01:46:51.983Z,4.85
2022-09-09T01:49:19.465Z,8.27
2022-09-09T01:51:50.658Z,5.95
2022-09-09T01:54:18.054Z,5.68
2022-09-09T01:56:55.490Z,6.25
2022-09-09T02:00:02.150Z,9.20
2022-09-09T02:02:47.788Z,4.63
2022-09-09T02:05:23.029Z,5.43
2022-09-09T02:07:53.311Z,7.60
2022-09-09T02:10:29.845Z,7.50
2022-09-09T02:13:20.674Z,5.88
2022-09-09T02:15:57.087Z,7.25
2022-09-09T02:18:51.228Z,4.70
2022-09-09T02:21:18.978Z,9.02
2022-09-09T02:23:48.915Z,5.75
2022-09-09T02:26:22.398Z,4.10
2022-09-09T02:31:23.026Z,6.78
2022-09-09T02:33:57.332Z,5.03
2022-09-09T02:36:27.387Z,7.20
2022-09-09T02:38:55.418Z,5.18
2022-09-09T02:41:33.682Z,5.70
2022-09-09T02:44:01.419Z,7.43
2022-09-09T02:46:43.309Z,8.27
2022-09-09T02:49:12.035Z,6.32
2022-09-09T02:52:02.094Z,9.00
2022-09-09T02:54:33.012Z,6.75
2022-09-09T02:57:21.775Z,5.75
2022-09-09T02:59:49.493Z,5.80
2022-09-09T03:02:16.639Z,6.63
2022-09-09T03:04:45.544Z,5.78
2022-09-09T03:07:13.092Z,4.90
2022-09-09T03:09:39.914Z,11.57
2022-09-09T03:12:06.773Z,4.95
2022-09-09T03:14:33.474Z,7.25
2022-09-09T03:17:01.922Z,7.90
2022-09-09T03:19:29.143Z,4.85
2022-09-09T03:21:55.841Z,6.13
2022-09-09T03:24:23.711Z,8.63
2022-09-09T03:26:51.487Z,7.18
2022-09-09T03:29:19.461Z,4.50
2022-09-09T03:31:46.396Z,4.00
2022-09-09T03:34:14.596Z,3.63
2022-09-09T03:36:42.089Z,4.20
2022-09-09T03:39:08.884Z,7.30
2022-09-09T03:41:35.630Z,7.40
2022-09-09T03:44:02.462Z,12.05
2022-09-09T03:46:29.363Z,6.55
2022-09-09T03:48:56.147Z,8.00
2022-09-09T03:51:23.025Z,7.15
2022-09-09T03:53:50.026Z,11.45
2022-09-09T03:56:16.752Z,6.45
2022-09-09T03:58:43.546Z,8.38
2022-09-09T04:01:15.824Z,3.53
2022-09-09T04:03:43.319Z,6.72
2022-09-09T04:06:14.308Z,15.43
2022-09-09T04:08:42.677Z,6.05
2022-09-09T04:11:09.591Z,8.90
2022-09-09T04:13:41.195Z,8.07
2022-09-09T04:16:09.268Z,9.88
2022-09-09T04:18:36.109Z,8.40
2022-09-09T04:21:04.577Z,9.25
2022-09-09T04:23:31.660Z,6.80
2022-09-09T04:25:59.905Z,7.32
2022-09-09T04:28:29.269Z,8.80
2022-09-09T04:30:57.805Z,9.45
2022-09-09T04:33:27.575Z,6.35
2022-09-09T04:35:55.955Z,5.93
2022-09-09T04:38:23.953Z,7.03
2022-09-09T04:40:52.765Z,4.53
2022-09-09T04:43:19.943Z,6.97
2022-09-09T04:45:49.487Z,7.03
2022-09-09T04:48:16.418Z,5.72
2022-09-09T04:50:43.081Z,7.38
2022-09-09T04:53:10.108Z,8.07
2022-09-09T04:55:36.902Z,23.33
2022-09-09T04:58:07.967Z,13.48
2022-09-09T05:00:36.796Z,7.50
2022-09-09T05:03:09.794Z,17.55
2022-09-09T05:05:36.977Z,15.07
2022-09-09T05:08:07.955Z,14.55
2022-09-09T05:10:35.548Z,9.40
2022-09-09T05:13:02.260Z,12.43
2022-09-09T05:15:29.594Z,6.45
2022-09-09T05:18:01.508Z,12.32
2022-09-09T05:20:29.248Z,11.23
2022-09-09T05:22:57.322Z,11.55
2022-09-09T05:25:26.934Z,9.18
2022-09-09T05:27:54.741Z,8.27
2022-09-09T05:30:23.146Z,7.30
2022-09-09T05:32:49.964Z,7.40
2022-09-09T05:35:17.281Z,10.95
2022-09-09T05:37:43.975Z,10.27
2022-09-09T05:40:11.863Z,9.32
2022-09-09T05:42:39.930Z,8.52
2022-09-09T05:45:08.701Z,11.52
2022-09-09T05:47:36.494Z,8.85
2022-09-09T05:50:03.395Z,6.18
2022-09-09T05:52:31.050Z,11.90
2022-09-09T05:54:58.021Z,8.60
2022-09-09T05:57:24.750Z,8.60
2022-09-09T05:59:51.486Z,7.20
2022-09-09T06:02:18.321Z,7.05
2022-09-09T06:04:45.106Z,7.05
2022-09-09T06:07:11.830Z,11.77
2022-09-09T06:09:38.506Z,6.55
2022-09-09T06:12:05.509Z,7.72
2022-09-09T06:14:32.209Z,8.90
2022-09-09T06:16:58.904Z,12.98
2022-09-09T06:19:27.363Z,8.70
2022-09-09T06:21:54.084Z,7.55
2022-09-09T06:24:21.009Z,10.38
2022-09-09T06:26:47.774Z,8.32
2022-09-09T06:29:14.472Z,8.07
2022-09-09T06:31:42.210Z,9.85
2022-09-09T06:34:10.245Z,5.75
2022-09-09T06:36:39.449Z,5.88
2022-09-09T06:39:12.104Z,7.13
2022-09-09T06:41:40.690Z,6.35
2022-09-09T06:44:07.583Z,7.45
2022-09-09T06:46:34.662Z,8.15
2022-09-09T06:49:01.730Z,7.35
2022-09-09T06:51:32.010Z,9.65
2022-09-09T06:54:03.115Z,14.13
2022-09-09T06:56:34.005Z,10.65
2022-09-09T06:59:04.911Z,11.88
2022-09-09T07:01:37.949Z,11.30
2022-09-09T07:04:08.347Z,10.63
2022-09-09T07:06:37.458Z,9.20
2022-09-09T07:09:07.202Z,8.35
2022-09-09T07:11:38.526Z,12.50
2022-09-09T07:14:05.273Z,7.47
2022-09-09T07:16:35.018Z,8.45
2022-09-09T07:19:03.414Z,7.15
2022-09-09T07:21:31.671Z,7.97
2022-09-09T07:23:59.810Z,12.00
2022-09-09T07:26:30.163Z,11.13
2022-09-09T07:28:58.053Z,7.88
2022-09-09T07:31:27.950Z,6.82
2022-09-09T07:33:55.013Z,8.10
2022-09-09T07:36:24.990Z,9.07
2022-09-09T07:38:54.669Z,6.20
2022-09-09T07:41:44.689Z,7.63
2022-09-09T07:44:14.158Z,6.82
2022-09-09T07:46:42.260Z,6.28
2022-09-09T07:49:09.942Z,9.80
2022-09-09T07:51:42.793Z,5.10
2022-09-09T07:54:12.157Z,5.10
2022-09-09T07:56:40.485Z,5.07
2022-09-09T07:59:08.007Z,5.75
2022-09-09T08:01:40.684Z,6.45
2022-09-09T08:04:10.743Z,4.82
2022-09-09T08:06:40.273Z,4.82
2022-09-09T08:09:08.031Z,6.15
2022-09-09T08:11:39.254Z,4.10
2022-09-09T08:14:09.102Z,5.07
2022-09-09T08:16:40.199Z,5.35
2022-09-09T08:19:08.257Z,5.20
2022-09-09T08:21:37.655Z,5.32
2022-09-09T08:24:06.123Z,8.32
2022-09-09T08:26:39.280Z,7.15
2022-09-09T08:29:08.094Z,5.90
2022-09-09T08:31:47.411Z,5.00
2022-09-09T08:34:14.618Z,6.25
2022-09-09T08:36:44.405Z,5.20
2022-09-09T08:39:13.317Z,4.18
2022-09-09T08:42:26.075Z,4.85
2022-09-09T08:45:20.221Z,7.20
2022-09-09T08:48:03.335Z,5.93
2022-09-09T08:50:36.261Z,5.05
2022-09-09T08:53:09.380Z,6.10
2022-09-09T08:55:58.335Z,6.47
2022-09-09T08:58:27.197Z,5.85
2022-09-09T09:01:15.148Z,5.38
2022-09-09T09:03:48.448Z,5.65
2022-09-09T09:06:25.327Z,6.97
2022-09-09T09:09:22.142Z,6.63
2022-09-09T09:11:54.313Z,6.00
2022-09-09T09:14:31.258Z,7.90
2022-09-09T09:17:07.404Z,7.80
2022-09-09T09:19:36.680Z,6.93
2022-09-09T09:22:08.379Z,8.43
2022-09-09T09:24:53.923Z,5.50
2022-09-09T09:27:34.229Z,6.25
2022-09-09T09:30:22.877Z,8.07
2022-09-09T09:32:59.434Z,8.25
2022-09-09T09:35:26.200Z,4.18
2022-09-09T09:40:59.331Z,7.25
2022-09-09T09:43:29.576Z,5.78
2022-09-09T09:46:16.622Z,4.60
2022-09-09T09:48:44.560Z,4.38
2022-09-09T09:51:18.169Z,4.15
2022-09-09T09:53:45.235Z,3.47
2022-09-09T09:56:16.878Z,3.92
2022-09-09T09:58:47.112Z,3.58
2022-09-09T10:01:32.342Z,5.10
2022-09-09T10:04:02.571Z,3.00
2022-09-09T10:06:39.108Z,3.85
2022-09-09T10:09:21.617Z,3.30
2022-09-09T10:12:20.195Z,3.40
2022-09-09T10:14:53.147Z,3.63
2022-09-09T10:17:28.239Z,2.97
2022-09-09T10:20:33.234Z,3.05
2022-09-09T10:23:26.213Z,4.05
2022-09-09T10:26:14.527Z,2.20
2022-09-09T10:29:03.348Z,3.00
2022-09-09T10:32:05.014Z,3.60
2022-09-09T10:34:46.573Z,2.53
2022-09-09T10:37:47.581Z,2.95
2022-09-09T10:40:30.934Z,3.33
2022-09-09T10:43:09.310Z,3.78
2022-09-09T10:46:01.242Z,2.47
2022-09-09T10:49:11.043Z,3.50
2022-09-09T10:51:43.618Z,2.88
2022-09-09T10:54:11.293Z,3.83
2022-09-09T10:56:40.710Z,3.88
2022-09-09T10:59:19.322Z,2.95
2022-09-09T11:01:50.336Z,4.68
2022-09-09T11:04:35.243Z,2.85
2022-09-09T11:07:11.901Z,3.95
2022-09-09T11:09:46.115Z,4.63
2022-09-09T11:12:20.466Z,2.28
2022-09-09T11:14:53.184Z,2.33
2022-09-09T11:17:28.346Z,3.03
2022-09-09T11:19:56.006Z,3.53
2022-09-09T11:22:28.614Z,1.50
2022-09-09T11:25:17.348Z,3.17
2022-09-09T11:27:53.095Z,2.25
2022-09-09T11:30:53.682Z,1.92
2022-09-09T11:33:33.154Z,3.33
2022-09-09T11:36:37.746Z,1.60
2022-09-09T11:39:25.373Z,3.00
2022-09-09T11:41:52.562Z,7.05
2022-09-09T11:44:31.133Z,2.47
2022-09-09T11:46:57.959Z,2.03
2022-09-09T11:49:42.823Z,3.80
2022-09-09T11:52:42.831Z,2.75
2022-09-09T11:55:13.146Z,2.03
2022-09-09T11:57:40.634Z,2.38
2022-09-09T12:00:08.182Z,2.60
2022-09-09T12:02:37.630Z,3.88
2022-09-09T12:05:11.008Z,3.13
2022-09-09T12:10:20.154Z,2.90
2022-09-09T12:12:47.382Z,1.60
2022-09-09T12:15:17.196Z,3.25
2022-09-09T12:17:51.394Z,2.50
2022-09-09T12:20:20.719Z,2.85
2022-09-09T12:22:52.800Z,2.85
2022-09-09T12:25:41.299Z,2.47
2022-09-09T12:28:19.076Z,1.63
2022-09-09T12:31:06.068Z,1.58
2022-09-09T12:33:44.018Z,2.42
2022-09-09T12:36:33.566Z,5.53
2022-09-09T12:39:16.157Z,2.85
2022-09-09T12:41:51.322Z,2.90
2022-09-09T12:44:17.998Z,2.15
2022-09-09T12:46:47.750Z,2.78
2022-09-09T12:49:36.518Z,4.53
2022-09-09T12:52:06.740Z,1.75
2022-09-09T12:54:37.257Z,5.43
2022-09-09T12:57:05.979Z,3.05
2022-09-09T12:59:40.156Z,7.82
2022-09-09T13:02:27.152Z,8.52
2022-09-09T13:04:55.210Z,7.35
2022-09-09T13:07:22.697Z,3.70
2022-09-09T13:09:50.197Z,2.88
2022-09-09T13:12:23.553Z,3.95
2022-09-09T13:14:54.343Z,4.50
2022-09-09T13:17:26.725Z,3.88
2022-09-09T13:19:54.334Z,2.53
2022-09-09T13:22:22.606Z,3.00
2022-09-09T13:25:03.948Z,3.85
2022-09-09T13:27:35.118Z,3.63
2022-09-09T13:30:02.979Z,2.50
2022-09-09T13:32:32.011Z,4.05
2022-09-09T13:35:00.693Z,4.15
2022-09-09T13:37:38.790Z,3.53
2022-09-09T13:40:07.659Z,3.15
2022-09-09T13:42:41.025Z,3.58
2022-09-09T13:47:44.136Z,4.05
2022-09-09T13:50:21.969Z,4.45
2022-09-09T13:52:51.079Z,4.53
2022-09-09T13:55:18.239Z,5.03
2022-09-09T13:58:02.129Z,5.03
2022-09-09T14:00:35.282Z,3.53
2022-09-09T14:03:04.874Z,5.22
2022-09-09T14:05:33.551Z,5.53
2022-09-09T14:08:01.588Z,3.75
2022-09-09T14:10:28.469Z,4.15
2022-09-09T14:12:55.230Z,4.65
2022-09-09T14:15:22.903Z,4.20
2022-09-09T14:17:49.662Z,3.67
2022-09-09T14:20:18.481Z,4.43
2022-09-09T14:22:45.202Z,2.20
2022-09-09T14:25:14.430Z,4.85
2022-09-09T14:27:41.747Z,3.97
2022-09-09T14:30:09.181Z,2.88
2022-09-09T14:32:36.055Z,3.60
2022-09-09T14:35:02.900Z,5.15
2022-09-09T14:37:32.015Z,3.50
2022-09-09T14:39:59.226Z,5.30
2022-09-09T14:42:26.868Z,3.22
2022-09-09T14:44:53.585Z,14.90
2022-09-09T14:47:20.336Z,5.55
2022-09-09T14:49:47.493Z,4.47
2022-09-09T14:52:14.365Z,4.03
2022-09-09T14:54:41.147Z,3.38
2022-09-09T14:57:07.837Z,3.08
2022-09-09T14:59:35.363Z,3.03
2022-09-09T15:02:05.116Z,3.70
2022-09-09T15:04:31.996Z,4.82
2022-09-09T15:06:59.642Z,5.82
2022-09-09T15:09:26.490Z,2.38
2022-09-09T15:11:53.310Z,4.45
2022-09-09T15:14:22.514Z,3.53
2022-09-09T15:16:52.337Z,3.58
2022-09-09T15:19:19.056Z,3.88
2022-09-09T15:21:45.786Z,4.28
2022-09-09T15:24:14.571Z,5.00
2022-09-09T15:26:41.350Z,4.28
2022-09-09T15:29:09.034Z,4.85
2022-09-09T15:31:36.199Z,3.70
2022-09-09T15:34:06.008Z,2.58
2022-09-09T15:36:35.176Z,4.32
2022-09-09T15:39:03.807Z,1.90
2022-09-09T15:41:32.602Z,5.18
2022-09-09T15:44:00.136Z,3.67
2022-09-09T15:46:29.647Z,2.67
2022-09-09T15:48:58.795Z,2.58
2022-09-09T15:51:43.612Z,6.63
2022-09-09T15:54:13.515Z,4.38
2022-09-09T15:56:40.892Z,3.78
2022-09-09T15:59:07.790Z,5.70
2022-09-09T16:01:36.585Z,3.92
2022-09-09T16:04:03.516Z,4.60
2022-09-09T16:06:30.638Z,3.08
2022-09-09T16:08:59.284Z,3.55
2022-09-09T16:11:34.531Z,3.25
2022-09-09T16:14:01.366Z,3.40
2022-09-09T16:16:30.384Z,3.10
2022-09-09T16:19:03.850Z,3.78
2022-09-09T16:24:04.413Z,3.63
2022-09-09T16:26:33.773Z,3.92
2022-09-09T16:29:02.205Z,2.58
2022-09-09T16:31:30.691Z,2.88
2022-09-09T16:33:57.672Z,3.45
2022-09-09T16:36:26.689Z,4.20
2022-09-09T16:38:55.938Z,4.05
2022-09-09T16:41:23.051Z,5.85
2022-09-09T16:43:54.864Z,3.20
2022-09-09T16:46:22.899Z,4.15
2022-09-09T16:48:50.242Z,3.38
2022-09-09T16:51:26.042Z,4.18
2022-09-09T16:53:54.344Z,2.60
2022-09-09T16:56:24.050Z,5.50
2022-09-09T16:58:58.989Z,5.75
2022-09-09T17:01:32.436Z,3.00
2022-09-09T17:04:04.368Z,4.03
2022-09-09T17:06:35.452Z,3.78
2022-09-09T17:09:05.042Z,3.63
2022-09-09T17:11:31.854Z,2.17
2022-09-09T17:13:59.300Z,4.85
2022-09-09T17:16:31.533Z,8.98
2022-09-09T17:18:59.573Z,39.63
2022-09-09T17:21:28.000Z,43.35
2022-09-09T17:23:57.189Z,18.50
2022-09-09T17:26:29.744Z,34.58
2022-09-09T17:28:59.823Z,9.87
2022-09-09T17:31:29.421Z,6.07
2022-09-09T17:33:56.913Z,6.28
2022-09-09T17:36:26.800Z,7.15
2022-09-09T17:38:53.858Z,13.10
2022-09-09T17:41:33.339Z,6.47
2022-09-09T17:44:00.676Z,9.40
2022-09-09T17:46:27.531Z,5.78
2022-09-09T17:48:58.198Z,7.03
2022-09-09T17:51:28.291Z,6.57
2022-09-09T17:53:56.805Z,10.32
2022-09-09T17:56:24.555Z,7.22
2022-09-09T17:58:52.003Z,3.55
2022-09-09T18:01:21.890Z,4.38
2022-09-09T18:03:49.955Z,5.75
2022-09-09T18:06:20.708Z,3.42
2022-09-09T18:08:52.719Z,3.28
2022-09-09T18:11:22.409Z,5.03
2022-09-09T18:13:55.572Z,6.93
2022-09-09T18:16:24.736Z,4.25
2022-09-09T18:18:52.600Z,5.57
2022-09-09T18:21:20.213Z,4.38
2022-09-09T18:23:52.223Z,3.85
2022-09-09T18:26:24.492Z,3.33
2022-09-09T18:28:54.032Z,4.85
2022-09-09T18:31:25.130Z,6.20
2022-09-09T18:33:53.498Z,4.90
2022-09-09T18:36:23.454Z,5.38
2022-09-09T18:38:51.086Z,5.30
2022-09-09T18:41:22.080Z,5.85
2022-09-09T18:43:50.950Z,6.82
2022-09-09T18:46:18.994Z,3.45
2022-09-09T18:48:47.262Z,6.45
2022-09-09T18:51:16.286Z,5.72
2022-09-09T18:53:43.033Z,6.75
2022-09-09T18:56:13.387Z,5.20
2022-09-09T18:58:40.589Z,5.10
2022-09-09T19:01:15.180Z,7.47
2022-09-09T19:03:42.063Z,4.00
2022-09-09T19:06:15.643Z,5.07
2022-09-09T19:08:44.717Z,7.32
2022-09-09T19:11:16.141Z,4.97
2022-09-09T19:13:43.718Z,4.93
2022-09-09T19:16:13.385Z,5.35
2022-09-09T19:18:41.552Z,4.57
2022-09-09T19:21:18.527Z,3.90
2022-09-09T19:23:56.466Z,7.80
2022-09-09T19:26:23.451Z,4.50
2022-09-09T19:28:51.686Z,7.28
2022-09-09T19:31:20.242Z,5.82
2022-09-09T19:33:47.953Z,6.43
2022-09-09T19:36:18.167Z,9.15
2022-09-09T19:38:47.545Z,6.15
2022-09-09T19:41:21.367Z,4.85
2022-09-09T19:43:48.330Z,6.38
2022-09-09T19:46:18.215Z,4.15
2022-09-09T19:48:46.681Z,6.70
2022-09-09T19:51:20.261Z,9.07
2022-09-09T19:56:19.950Z,7.80
2022-09-09T19:58:48.303Z,6.43
2022-09-09T20:01:21.250Z,6.15
2022-09-09T20:03:51.317Z,5.18
2022-09-09T20:06:24.138Z,8.63
2022-09-09T20:08:51.050Z,11.02
2022-09-09T20:11:20.333Z,8.18
2022-09-09T20:13:48.968Z,4.97
2022-09-09T20:16:22.606Z,9.32
2022-09-09T20:18:52.562Z,5.35
2022-09-09T20:21:25.302Z,6.70
2022-09-09T20:23:52.876Z,6.55
2022-09-09T20:26:22.408Z,8.48
2022-09-09T20:28:50.610Z,5.20
2022-09-09T20:31:20.050Z,7.38
2022-09-09T20:33:47.697Z,8.45
2022-09-09T20:36:20.245Z,4.75
2022-09-09T20:38:53.093Z,6.47
2022-09-09T20:41:22.537Z,6.25
2022-09-09T20:43:54.138Z,10.18
2022-09-09T20:46:23.268Z,8.23
2022-09-09T20:48:51.349Z,11.02
2022-09-09T20:51:19.688Z,9.52
2022-09-09T20:53:47.432Z,9.07
2022-09-09T20:56:16.897Z,6.03
2022-09-09T20:58:43.846Z,5.15
2022-09-09T21:01:15.977Z,8.50
2022-09-09T21:03:42.794Z,6.70
2022-09-09T21:06:09.579Z,5.90
2022-09-09T21:08:36.807Z,6.65
2022-09-09T21:11:05.171Z,4.22
2022-09-09T21:13:34.039Z,8.95
2022-09-09T21:16:01.032Z,4.70
2022-09-09T21:18:29.187Z,4.55
2022-09-09T21:20:56.454Z,4.45
2022-09-09T21:23:24.170Z,5.68
2022-09-09T21:25:51.869Z,8.77
2022-09-09T21:28:18.580Z,5.10
2022-09-09T21:30:49.317Z,6.97
2022-09-09T21:33:17.678Z,6.85
2022-09-09T21:35:45.080Z,6.20
2022-09-09T21:38:17.841Z,7.10
2022-09-09T21:40:44.879Z,11.77
2022-09-09T21:43:14.092Z,9.85
2022-09-09T21:45:42.297Z,9.05
2022-09-09T21:48:12.963Z,6.72
2022-09-09T21:50:41.951Z,9.50
2022-09-09T21:53:10.083Z,7.82
2022-09-09T21:55:41.888Z,9.07
2022-09-09T21:58:11.833Z,10.32
2022-09-09T22:00:46.556Z,10.10
2022-09-09T22:03:15.493Z,9.68
2022-09-09T22:05:44.115Z,7.22
2022-09-09T22:08:13.918Z,6.63
2022-09-09T22:10:45.693Z,5.60
2022-09-09T22:13:16.310Z,8.32
2022-09-09T22:15:45.488Z,6.20
2022-09-09T22:18:14.049Z,13.20
2022-09-09T22:20:44.080Z,5.55
2022-09-09T22:23:12.441Z,7.53
2022-09-09T22:25:40.349Z,6.28
2022-09-09T22:28:09.142Z,6.13
2022-09-09T22:30:35.873Z,5.40
2022-09-09T22:33:02.640Z,7.80
2022-09-09T22:35:29.575Z,9.55
2022-09-09T22:37:57.156Z,6.55
2022-09-09T22:40:23.940Z,8.82
2022-09-09T22:42:52.884Z,9.40
2022-09-09T22:45:20.832Z,9.25
2022-09-09T22:47:47.739Z,9.07
2022-09-09T22:50:14.536Z,8.23
2022-09-09T22:52:41.315Z,8.60
2022-09-09T22:55:09.238Z,6.70
2022-09-09T22:57:37.281Z,9.23
2022-09-09T23:00:09.132Z,8.63
2022-09-09T23:02:40.803Z,7.35
2022-09-09T23:05:11.282Z,6.88
2022-09-09T23:07:38.207Z,6.05
2022-09-09T23:10:05.954Z,7.35
2022-09-09T23:12:34.015Z,7.50
2022-09-09T23:15:00.924Z,6.55
2022-09-09T23:17:27.833Z,7.07
2022-09-09T23:19:56.648Z,6.75
2022-09-09T23:22:24.262Z,5.72
2022-09-09T23:24:52.729Z,6.78
2022-09-09T23:27:21.249Z,7.55
2022-09-09T23:29:48.719Z,5.53
2022-09-09T23:32:15.806Z,8.27
2022-09-09T23:34:42.625Z,6.72
2022-09-09T23:37:11.175Z,7.93
2022-09-09T23:39:40.270Z,7.00
2022-09-09T23:42:08.034Z,6.45
2022-09-09T23:44:36.618Z,5.30
2022-09-09T23:47:05.583Z,8.55
2022-09-09T23:49:34.116Z,8.25
2022-09-09T23:52:05.245Z,6.13
2022-09-09T23:54:33.109Z,7.25
2022-09-09T23:57:02.292Z,6.43
2022-09-09T23:59:30.387Z,11.45
